Latest Coastal Weather Observations for Gladstone

IDQ60701

Issued at 10:02 am EST Wednesday 29 June 2016 (issued every 10 minutes, with the page automatically refreshed every 10 minutes)

About coastal observations | Map of coastal stations | Coastal observations for QLD | Marine services | Other Formats
Station Details ID: 039123 Name: GLADSTONE RADAR Lat: -23.86 Lon: 151.26 Height: 74.5 m
Data from the previous 72 hours. | See also: Recent months at Gladstone
Date/Time
EST
Temp
°C
Wind Pressure Rain since
9am
mm
Weather Cloud Vis
km
Sea
Height
m
Swell
Dir  Spd
kts
Gust
kts
hPa Trend Height
m
Period
s
Dir
29/10:00am 16.3 SSE 4 9 1025.7 - 0.0 - - - - - - -
29/09:30am 14.1 SSW 1 6 1026.0 - 0.0 - - - - - - -
29/09:00am 12.8 WSW 1 3 1026.1 - 0.0 - - - - - - -
29/08:30am 11.1 WSW 5 7 1025.9 - 0.0 - - - - - - -
29/08:00am 10.0 WSW 4 6 1025.7 - 0.0 - - - - - - -
29/07:30am 9.1 WSW 4 6 1025.2 - 0.0 - - - - - - -
29/07:00am 9.2 SW 6 9 1024.7 - 0.0 - - - - - - -
29/06:30am 8.9 WSW 4 8 1024.6 - 0.0 - - - - - - -
29/06:00am 9.5 SW 7 12 1024.2 - 0.0 - - - - - - -
29/05:30am 9.8 SW 10 17 1024.0 - 0.0 - - - - - - -
29/05:00am 9.7 SW 9 16 1023.8 - 0.0 - - - - - - -
29/04:30am 9.8 SW 8 14 1023.7 - 0.0 - - - - - - -
29/04:00am 9.9 SW 8 13 1023.8 - 0.0 - - - - - - -
29/03:30am 9.8 WSW 7 10 1023.7 - 0.0 - - - - - - -
29/03:00am 10.2 WSW 6 10 1023.8 - 0.0 - - - - - - -
29/02:30am 10.5 SW 7 12 1023.9 - 0.0 - - - - - - -
29/02:00am 10.9 SW 7 14 1023.9 - 0.0 - - - - - - -
29/01:30am 11.1 SW 6 8 1024.0 - 0.0 - - - - - - -
29/01:00am 11.4 SW 6 11 1024.1 - 0.0 - - - - - - -
29/12:30am 11.5 SW 7 12 1024.1 - 0.0 - - - - - - -
29/12:00am 11.7 SW 6 12 1024.3 - 0.0 - - - - - - -
 
Date/Time
EST
Temp
°C
Wind Pressure Rain since
9am
mm
Weather Cloud Vis
km
Sea
Height
m
Swell
Dir  Spd
kts
Gust
kts
hPa Trend Height
m
Period
s
Dir
28/11:30pm 12.0 SW 7 13 1024.2 - 0.0 - - - - - - -
28/11:00pm 12.2 SW 8 13 1024.1 - 0.0 - - - - - - -
28/10:30pm 12.0 SW 4 8 1024.1 - 0.0 - - - - - - -
28/10:00pm 13.0 SW 7 12 1024.1 - 0.0 - - - - - - -
28/09:30pm 12.7 SW 6 10 1024.1 - 0.0 - - - - - - -
28/09:00pm 13.2 SW 6 9 1024.1 - 0.0 - - - - - - -
28/08:30pm 13.4 SSW 4 9 1024.1 - 0.0 - - - - - - -
28/08:00pm 14.0 WSW 7 11 1023.8 - 0.0 - - - - - - -
28/07:30pm 14.2 SW 6 9 1023.8 - 0.0 - - - - - - -
28/07:00pm 14.5 SW 7 11 1023.3 - 0.0 - - - - - - -
28/06:30pm 14.9 SW 6 9 1022.9 - 0.0 - - - - - - -
28/06:00pm 15.6 SSE 7 10 1022.5 - 0.0 - - - - - - -
28/05:30pm 16.2 S 7 9 1022.1 - 0.0 - - - - - - -
28/05:00pm 16.8 S 6 8 1021.6 - 0.0 - - - - - - -
28/04:30pm 17.7 SW 4 6 1021.2 - 0.0 - - - - - - -
28/04:00pm 17.7 SSE 5 9 1020.8 - 0.0 - - - - - - -
28/03:30pm 18.3 SW 5 13 1020.6 - 0.0 - - - - - - -
28/03:00pm 18.6 SW 6 12 1020.6 - 0.0 - - - - - - -
28/02:30pm 18.8 W 4 7 1020.5 - 0.0 - - - - - - -
28/02:00pm 18.2 SW 6 9 1020.6 - 0.0 - - - - - - -
28/01:30pm 17.2 SW 6 10 1020.8 - 0.0 - - - - - - -
28/01:00pm 16.7 SW 6 11 1021.1 - 0.0 - - - - - - -
28/12:30pm 15.9 SSW 5 12 1021.7 - 0.0 - - - - - - -
28/12:00pm 14.8 SSW 9 16 1021.9 - 0.0 - - - - - - -
28/11:30am 14.3 SW 8 15 1022.3 - 0.0 - - - - - - -
28/11:00am 14.0 SW 7 12 1022.6 - 0.0 - - - - - - -
28/10:30am 12.8 SW 8 13 1022.9 - 0.0 - - - - - - -
28/10:00am 11.8 SW 11 22 1022.9 - 0.0 - - - - - - -
28/09:30am 10.9 SW 10 17 1023.0 - 0.0 - - - - - - -
28/09:00am 10.2 SW 8 14 1023.1 - 6.4 - - - - - - -
28/08:30am 9.4 SW 8 16 1023.1 - 6.4 - - - - - - -
28/08:00am 8.8 SSW 8 16 1022.9 - 6.4 - - - - - - -
28/07:30am 8.2 SW 7 13 1022.5 - 6.4 - - - - - - -
28/07:00am 7.9 SSW 8 13 1022.0 - 6.4 - - - - - - -
28/06:30am 7.9 SSW 5 8 1021.7 - 6.4 - - - - - - -
28/06:00am 8.1 SW 6 10 1021.2 - 6.4 - - - - - - -
28/05:30am 8.4 SSW 6 10 1021.0 - 6.4 - - - - - - -
28/05:00am 8.5 SW 5 10 1020.6 - 6.4 - - - - - - -
28/04:30am 9.0 SW 7 11 1020.4 - 6.4 - - - - - - -
28/04:00am 9.3 SW 7 11 1020.2 - 6.4 - - - - - - -
28/03:30am 9.4 SW 6 9 1020.1 - 6.4 - - - - - - -
28/03:00am 9.8 SW 6 9 1020.0 - 6.4 - - - - - - -
28/02:30am 10.2 SSW 6 8 1020.1 - 6.4 - - - - - - -
28/02:00am 10.6 SSW 4 7 1020.1 - 6.4 - - - - - - -
28/01:30am 11.2 SW 7 11 1020.0 - 6.4 - - - - - - -
28/01:00am 11.6 SW 7 13 1020.0 - 6.4 - - - - - - -
28/12:30am 12.1 SSW 7 12 1019.9 - 6.4 - - - - - - -
28/12:00am 12.5 SSW 7 15 1019.8 - 6.4 - - - - - - -
 
Date/Time
EST
Temp
°C
Wind Pressure Rain since
9am
mm
Weather Cloud Vis
km
Sea
Height
m
Swell
Dir  Spd
kts
Gust
kts
hPa Trend Height
m
Period
s
Dir
27/11:30pm 12.8 SSW 8 17 1019.6 - 6.4 - - - - - - -
27/11:00pm 13.2 SSW 7 13 1019.5 - 6.4 - - - - - - -
27/10:30pm 13.5 SSW 6 9 1019.3 - 6.4 - - - - - - -
27/10:00pm 13.8 SSW 7 10 1019.3 - 6.4 - - - - - - -
27/09:30pm 14.0 SSW 4 7 1019.3 - 6.4 - - - - - - -
27/09:00pm 14.2 SW 4 6 1019.1 - 6.4 - - - - - - -
27/08:30pm 14.5 SSW 5 7 1018.8 - 6.4 - - - - - - -
27/08:00pm 15.0 S 6 8 1018.6 - 6.4 - - - - - - -
27/07:30pm 15.1 SSW 5 9 1018.1 - 6.4 - - - - - - -
27/07:00pm 15.8 SSE 6 8 1017.7 - 6.4 - - - - - - -
27/06:30pm 16.5 S 5 9 1017.4 - 6.4 - - - - - - -
27/06:00pm 17.4 SSW 7 11 1016.7 - 6.4 - - - - - - -
27/05:30pm 17.7 WSW 5 10 1016.5 - 6.4 - - - - - - -
27/05:00pm 18.4 WSW 5 10 1015.9 - 6.4 - - - - - - -
27/04:30pm 19.2 WSW 7 15 1015.5 - 6.4 - - - - - - -
27/04:00pm 19.9 WSW 6 12 1015.2 - 6.4 - - - - - - -
27/03:30pm 20.6 WSW 5 7 1014.8 - 6.4 - - - - - - -
27/03:00pm 19.2 WSW 4 9 1014.8 - 6.4 - - - - - - -
27/02:30pm 19.2 WSW 3 5 1014.8 - 6.4 - - - - - - -
27/02:00pm 18.6 WSW 3 5 1014.8 - 6.4 - - - - - - -
27/01:30pm 17.9 WSW 4 8 1014.9 - 6.4 - - - - - - -
27/01:00pm 17.1 WSW 5 9 1015.4 - 6.4 - - - - - - -
27/12:30pm 17.0 WSW 6 9 1015.7 - 5.8 - - - - - - -
27/12:00pm 16.8 WSW 5 9 1016.2 - 3.4 Rain - - - - - -
27/11:30am 16.9 WSW 5 9 1016.5 - 2.0 - - - - - - -
27/11:00am 16.7 WSW 6 10 1017.0 - 1.2 - - - - - - -
27/10:30am 17.5 WSW 3 6 1017.1 - 0.6 - - - - - - -
27/10:00am 18.5 WSW 1 4 1017.0 - 0.0 - - - - - - -
27/09:30am 19.2 CALM 0 0 1016.8 - 0.0 - - - - - - -
27/09:00am 18.6 CALM 0 0 1016.7 - 0.0 - - - - - - -
27/08:30am 17.9 WSW 3 4 1016.8 - 0.0 - - - - - - -
27/08:00am 17.1 SW 3 5 1016.4 - 0.0 - - - - - - -
27/07:30am 16.4 WSW 3 4 1016.6 - 0.0 - - - - - - -
27/07:00am 16.3 WSW 2 5 1016.4 - 0.0 - - - - - - -
27/06:30am 16.1 SW 3 4 1016.3 - 0.0 - - - - - - -
27/06:00am 16.0 WSW 5 6 1016.3 - 0.0 - - - - - - -
27/05:30am 16.1 SW 4 5 1015.9 - 0.0 - - - - - - -
27/05:00am 16.4 WSW 4 5 1015.7 - 0.0 - - - - - - -
27/04:30am 15.4 SW 5 6 1015.6 - 0.0 - - - - - - -
27/04:00am 15.9 CALM 0 0 1015.7 - 0.0 - - - - - - -
27/03:30am 15.9 WSW 3 5 1015.5 - 0.0 - - - - - - -
27/03:00am 15.3 WSW 6 8 1015.9 - 0.0 - - - - - - -
27/02:30am 15.9 SW 4 5 1015.8 - 0.0 - - - - - - -
27/02:00am 15.8 SW 5 7 1016.1 - 0.0 - - - - - - -
27/01:30am 16.1 S 3 4 1016.1 - 0.0 - - - - - - -
27/01:00am 16.2 SE 4 4 1016.3 - 0.0 - - - - - - -
27/12:30am 16.2 SSW 3 4 1016.7 - 0.0 - - - - - - -
27/12:00am 15.9 SSW 5 6 1016.8 - 0.0 - - - - - - -
 
Date/Time
EST
Temp
°C
Wind Pressure Rain since
9am
mm
Weather Cloud Vis
km
Sea
Height
m
Swell
Dir  Spd
kts
Gust
kts
hPa Trend Height
m
Period
s
Dir
26/11:30pm 16.0 SSE 4 4 1017.1 - 0.0 - - - - - - -
26/11:00pm 16.0 SSE 4 5 1017.3 - 0.0 - - - - - - -
26/10:30pm 15.7 CALM 0 4 1017.7 - 0.0 - - - - - - -
26/10:00pm 16.0 E 6 7 1017.6 - 0.0 - - - - - - -
26/09:30pm 15.9 ESE 6 7 1018.0 - 0.0 - - - - - - -
26/09:00pm 16.4 SE 5 7 1018.3 - 0.0 - - - - - - -
26/08:30pm 16.5 SE 5 6 1018.2 - 0.0 - - - - - - -
26/08:00pm 16.7 ESE 5 6 1018.4 - 0.0 - - - - - - -
26/07:30pm 16.5 E 6 7 1018.3 - 0.0 - - - - - - -
26/07:00pm 16.4 ESE 5 6 1018.2 - 0.0 - - - - - - -
26/06:30pm 16.2 E 5 7 1017.9 - 0.0 - - - - - - -
26/06:00pm 16.3 E 6 7 1017.5 - 0.0 - - - - - - -
26/05:30pm 16.4 E 7 9 1016.7 - 0.0 - - - - - - -
26/05:00pm 17.1 E 7 9 1016.4 - 0.0 - - - - - - -
26/04:30pm 18.1 ENE 7 11 1016.2 - 0.0 - - - - - - -
26/04:00pm 18.8 E 8 10 1016.5 - 0.0 - - - - - - -
26/03:30pm 19.8 ENE 5 8 1016.7 - 0.0 - - - - - - -
26/03:00pm 19.8 ENE 5 7 1016.7 - 0.0 - - - - - - -
26/02:30pm 20.2 ENE 4 7 1017.1 - 0.0 - - - - - - -
26/02:00pm 20.3 ENE 5 8 1017.4 - 0.0 - - - - - - -
26/01:30pm 20.0 ENE 6 9 1017.5 - 0.0 - - - - - - -
26/01:00pm 20.2 ENE 7 10 1017.8 - 0.0 - - - - - - -
26/12:30pm 20.5 ENE 7 10 1018.2 - 0.0 - - - - - - -
26/12:00pm 20.5 ENE 7 10 1018.7 - 0.0 - - - - - - -
26/11:30am 19.7 E 5 9 1019.4 - 0.0 - - - - - - -
26/11:00am 19.1 E 5 7 1019.9 - 0.0 - - - - - - -
26/10:30am 18.2 SE 5 7 1020.2 - 0.0 - - - - - - -

Other Formats:

Comma delimited format used in spreadsheet applications
http://www.bom.gov.au/fwo/IDQ60701/IDQ60701.94380.axf

JavaScript Object Notation format (JSON) in row-major order
http://www.bom.gov.au/fwo/IDQ60701/IDQ60701.94380.json